Time;durP1;ratioP1;P1;durP2;ratioP2;P2;SDS_P1;SDS_P2;PMS_P1;PMS_P2;Temp;Humidity;BMP_temperature;BMP_pressure;BME280_temperature;BME280_humidity;BME280_pressure;Samples;Min_cycle;Max_cycle;Signal;HPM_P1;HPM_P2
2024/01/02 00:00:09;;;;;;;7.63;2.45;;;;;;;;;;2017562;29;20057;-58
2024/01/02 00:01:16;;;;;;;7.32;2.03;;;;;;;;;;2026164;29;20044;-58
2024/01/02 00:02:16;;;;;;;7.28;2.28;;;;;;;;;;2025974;29;20033;-57
2024/01/02 00:03:17;;;;;;;5.75;2.08;;;;;;;;;;2025999;29;20429;-57
2024/01/02 00:04:18;;;;;;;8.07;1.98;;;;;;;;;;2026086;29;20048;-58
2024/01/02 00:05:19;;;;;;;5.50;2.00;;;;;;;;;;2025994;29;20040;-58
2024/01/02 00:06:19;;;;;;;5.38;1.98;;;;;;;;;;2026029;29;20037;-58
2024/01/02 00:07:20;;;;;;;3.45;1.38;;;;;;;;;;2026187;29;20400;-57
2024/01/02 00:08:21;;;;;;;7.68;2.20;;;;;;;;;;2026145;29;20039;-58
2024/01/02 00:09:21;;;;;;;6.35;2.03;;;;;;;;;;2025469;29;20040;-58
2024/01/02 00:10:22;;;;;;;3.83;1.83;;;;;;;;;;2026151;29;20029;-57
2024/01/02 00:11:23;;;;;;;10.15;2.03;;;;;;;;;;2026207;29;20060;-58
2024/01/02 00:12:24;;;;;;;4.97;1.63;;;;;;;;;;2026179;29;20494;-58
2024/01/02 00:13:24;;;;;;;5.03;1.52;;;;;;;;;;2017164;29;20041;-58
2024/01/02 00:14:28;;;;;;;8.32;1.90;;;;;;;;;;2017145;29;20041;-58
2024/01/02 00:15:28;;;;;;;4.80;1.58;;;;;;;;;;2025155;29;20051;-57
2024/01/02 00:16:29;;;;;;;7.78;1.92;;;;;;;;;;2025980;29;20433;-57
2024/01/02 00:17:30;;;;;;;5.78;1.70;;;;;;;;;;2025399;29;20453;-58
2024/01/02 00:18:31;;;;;;;6.07;1.73;;;;;;;;;;2025491;29;20072;-57
2024/01/02 00:19:31;;;;;;;6.13;1.70;;;;;;;;;;2026082;29;20052;-58
2024/01/02 00:20:32;;;;;;;4.25;1.67;;;;;;;;;;2026112;29;20032;-58
2024/01/02 00:21:33;;;;;;;6.63;2.28;;;;;;;;;;2025959;29;20039;-57
2024/01/02 00:22:33;;;;;;;5.97;1.70;;;;;;;;;;2026306;29;20041;-58
2024/01/02 00:23:34;;;;;;;3.63;1.88;;;;;;;;;;2025973;29;20366;-57
2024/01/02 00:24:35;;;;;;;4.18;1.33;;;;;;;;;;2025947;29;20466;-57
2024/01/02 00:25:36;;;;;;;7.25;1.70;;;;;;;;;;2026029;29;20032;-57
2024/01/02 00:26:36;;;;;;;6.05;1.67;;;;;;;;;;2025940;29;20036;-57
2024/01/02 00:27:37;;;;;;;3.72;1.65;;;;;;;;;;2025095;29;20044;-58
2024/01/02 00:28:38;;;;;;;5.50;1.20;;;;;;;;;;2017541;29;20586;-57
2024/01/02 00:29:39;;;;;;;4.13;1.42;;;;;;;;;;2017092;29;20057;-58
2024/01/02 00:30:40;;;;;;;6.10;1.33;;;;;;;;;;2009453;29;20045;-57
2024/01/02 00:31:44;;;;;;;5.60;1.45;;;;;;;;;;2016998;29;20049;-57
2024/01/02 00:32:45;;;;;;;2.78;1.17;;;;;;;;;;2026116;29;20049;-59
2024/01/02 00:33:45;;;;;;;3.20;1.33;;;;;;;;;;2027621;29;20040;-58
2024/01/02 00:34:46;;;;;;;3.97;1.77;;;;;;;;;;2019273;29;20188;-58
2024/01/02 00:35:47;;;;;;;3.60;1.38;;;;;;;;;;2011476;29;20049;-58
2024/01/02 00:36:48;;;;;;;4.55;1.48;;;;;;;;;;2018961;29;20145;-57
2024/01/02 00:37:48;;;;;;;6.57;1.65;;;;;;;;;;2027556;29;20040;-58
2024/01/02 00:38:49;;;;;;;5.00;1.35;;;;;;;;;;2027029;29;20053;-58
2024/01/02 00:39:50;;;;;;;5.00;1.33;;;;;;;;;;2027468;29;20080;-58
2024/01/02 00:40:52;;;;;;;2.75;1.20;;;;;;;;;;2027517;29;20037;-58
2024/01/02 00:41:53;;;;;;;3.67;1.33;;;;;;;;;;2026824;29;20052;-58
2024/01/02 00:42:54;;;;;;;3.42;1.35;;;;;;;;;;2019123;29;20482;-58
2024/01/02 00:43:54;;;;;;;5.65;1.33;;;;;;;;;;2019214;29;20052;-58
2024/01/02 00:44:55;;;;;;;2.80;1.17;;;;;;;;;;2018843;29;20045;-58
2024/01/02 00:45:57;;;;;;;7.68;2.22;;;;;;;;;;2018955;29;20049;-58
2024/01/02 00:46:57;;;;;;;3.55;1.50;;;;;;;;;;2018474;29;20045;-58
2024/01/02 00:47:58;;;;;;;4.07;1.50;;;;;;;;;;2018543;29;20055;-58
2024/01/02 00:48:59;;;;;;;4.03;1.40;;;;;;;;;;2018839;29;20049;-57
2024/01/02 00:50:00;;;;;;;5.45;1.20;;;;;;;;;;2018664;29;20506;-58
2024/01/02 00:51:01;;;;;;;4.55;1.27;;;;;;;;;;2026059;29;20081;-57
2024/01/02 00:52:02;;;;;;;3.20;1.20;;;;;;;;;;2026613;29;20040;-58
2024/01/02 00:53:04;;;;;;;3.47;1.38;;;;;;;;;;2018931;29;20048;-58
2024/01/02 00:54:05;;;;;;;3.20;1.30;;;;;;;;;;2019013;29;20053;-58
2024/01/02 00:55:06;;;;;;;3.70;1.30;;;;;;;;;;2018332;29;20477;-58
2024/01/02 00:56:07;;;;;;;4.70;1.63;;;;;;;;;;2027337;29;20059;-58
2024/01/02 00:57:08;;;;;;;4.20;1.27;;;;;;;;;;2027404;29;20036;-58
2024/01/02 00:58:09;;;;;;;3.95;1.55;;;;;;;;;;2027406;29;20382;-58
2024/01/02 00:59:11;;;;;;;3.30;1.05;;;;;;;;;;2026764;29;20441;-58
2024/01/02 01:00:12;;;;;;;5.32;1.48;;;;;;;;;;2027440;29;20040;-58
2024/01/02 01:01:13;;;;;;;5.25;1.10;;;;;;;;;;2018964;29;20049;-58
2024/01/02 01:02:14;;;;;;;4.60;1.30;;;;;;;;;;2018723;29;20433;-58
2024/01/02 01:03:14;;;;;;;6.82;1.55;;;;;;;;;;2027082;29;20056;-58
2024/01/02 01:04:15;;;;;;;6.38;1.13;;;;;;;;;;2027370;29;20038;-58
2024/01/02 01:05:16;;;;;;;3.33;1.50;;;;;;;;;;2027435;29;20040;-58
2024/01/02 01:06:17;;;;;;;4.05;1.38;;;;;;;;;;2027327;29;20407;-58
2024/01/02 01:07:17;;;;;;;2.85;1.00;;;;;;;;;;2018558;29;20041;-58
2024/01/02 01:08:18;;;;;;;2.13;0.98;;;;;;;;;;2018935;29;20064;-58
2024/01/02 01:09:19;;;;;;;2.65;1.20;;;;;;;;;;2026794;29;20080;-58
2024/01/02 01:10:20;;;;;;;3.05;1.10;;;;;;;;;;2026669;29;20107;-58
2024/01/02 01:11:20;;;;;;;3.42;1.17;;;;;;;;;;2026751;29;20040;-58
2024/01/02 01:12:21;;;;;;;3.25;1.20;;;;;;;;;;2027362;29;20475;-58
2024/01/02 01:13:22;;;;;;;4.15;1.20;;;;;;;;;;2027403;29;20029;-58
2024/01/02 01:14:22;;;;;;;4.30;1.40;;;;;;;;;;2026955;29;20402;-58
2024/01/02 01:15:24;;;;;;;5.47;1.30;;;;;;;;;;2019235;29;20056;-58
2024/01/02 01:16:25;;;;;;;7.22;1.17;;;;;;;;;;2018773;29;20418;-58
2024/01/02 01:17:25;;;;;;;4.10;1.20;;;;;;;;;;2027233;29;20039;-58
2024/01/02 01:18:26;;;;;;;4.75;1.08;;;;;;;;;;2026643;29;20045;-58
2024/01/02 01:19:27;;;;;;;2.83;1.05;;;;;;;;;;2018995;29;20037;-58
2024/01/02 01:20:28;;;;;;;5.57;1.42;;;;;;;;;;2018918;29;20040;-58
2024/01/02 01:21:28;;;;;;;5.40;1.23;;;;;;;;;;2027322;29;20029;-58
2024/01/02 01:22:29;;;;;;;4.32;1.02;;;;;;;;;;2026349;29;20052;-58
2024/01/02 01:23:30;;;;;;;3.22;0.98;;;;;;;;;;2027196;29;20029;-58
2024/01/02 01:24:30;;;;;;;3.70;1.10;;;;;;;;;;2027292;29;20382;-58
2024/01/02 01:25:31;;;;;;;3.42;1.42;;;;;;;;;;2018943;29;20044;-58
2024/01/02 01:26:32;;;;;;;3.10;0.88;;;;;;;;;;2010568;29;20041;-58
2024/01/02 01:27:33;;;;;;;3.60;1.02;;;;;;;;;;2018944;29;20037;-58
2024/01/02 01:28:34;;;;;;;2.03;0.82;;;;;;;;;;2027264;29;20091;-58
2024/01/02 01:29:34;;;;;;;5.00;1.10;;;;;;;;;;2026555;29;20048;-58
2024/01/02 01:30:35;;;;;;;2.05;0.90;;;;;;;;;;2026548;29;20032;-58
2024/01/02 01:31:36;;;;;;;3.40;1.30;;;;;;;;;;2026293;29;20052;-58
2024/01/02 01:32:36;;;;;;;3.13;0.90;;;;;;;;;;2026517;29;20045;-58
2024/01/02 01:33:37;;;;;;;4.30;0.90;;;;;;;;;;2027251;29;20040;-58
2024/01/02 01:34:38;;;;;;;3.83;0.98;;;;;;;;;;2026051;29;20414;-58
2024/01/02 01:35:39;;;;;;;4.93;1.25;;;;;;;;;;2027251;29;20065;-58
2024/01/02 01:36:39;;;;;;;2.20;0.90;;;;;;;;;;2018762;29;20045;-58
2024/01/02 01:37:40;;;;;;;3.92;0.85;;;;;;;;;;2018534;29;20041;-58
2024/01/02 01:38:41;;;;;;;3.92;1.10;;;;;;;;;;2027135;29;20067;-57
2024/01/02 01:39:41;;;;;;;4.93;1.10;;;;;;;;;;2018753;29;20048;-58
2024/01/02 01:40:42;;;;;;;4.47;1.05;;;;;;;;;;2018432;29;20049;-58
2024/01/02 01:41:43;;;;;;;3.90;0.73;;;;;;;;;;2027101;29;20405;-58
2024/01/02 01:42:44;;;;;;;2.63;1.05;;;;;;;;;;2026444;29;20076;-58
2024/01/02 01:43:45;;;;;;;6.07;1.02;;;;;;;;;;2018649;29;20084;-58
2024/01/02 01:44:46;;;;;;;3.42;0.90;;;;;;;;;;2018142;29;20056;-58
2024/01/02 01:45:47;;;;;;;2.25;0.85;;;;;;;;;;2026552;29;20405;-59
2024/01/02 01:46:48;;;;;;;1.25;0.60;;;;;;;;;;2026579;29;20040;-58
2024/01/02 01:47:48;;;;;;;3.65;0.90;;;;;;;;;;2026379;29;20056;-58
2024/01/02 01:48:49;;;;;;;3.95;0.73;;;;;;;;;;2019609;29;20240;-61
2024/01/02 01:49:50;;;;;;;6.82;1.20;;;;;;;;;;2019298;29;20032;-63
2024/01/02 01:50:50;;;;;;;3.03;1.05;;;;;;;;;;2027522;29;20037;-62
2024/01/02 01:51:51;;;;;;;4.47;1.00;;;;;;;;;;2027318;29;20087;-58
2024/01/02 01:52:52;;;;;;;2.97;1.00;;;;;;;;;;2019879;29;20429;-62
2024/01/02 01:53:53;;;;;;;5.88;0.98;;;;;;;;;;2011238;29;20047;-57
2024/01/02 01:54:54;;;;;;;2.95;0.80;;;;;;;;;;2003502;29;20044;-58
2024/01/02 01:55:55;;;;;;;1.88;0.65;;;;;;;;;;2011009;29;20033;-58
2024/01/02 01:56:56;;;;;;;4.97;1.02;;;;;;;;;;2018644;29;20041;-58
2024/01/02 01:57:56;;;;;;;3.47;0.73;;;;;;;;;;2003488;29;20053;-58
2024/01/02 01:58:57;;;;;;;3.08;0.80;;;;;;;;;;2011021;29;20193;-58
2024/01/02 01:59:58;;;;;;;1.13;0.60;;;;;;;;;;2010931;29;20049;-58
2024/01/02 02:00:59;;;;;;;1.10;0.60;;;;;;;;;;2003300;29;20046;-57
2024/01/02 02:01:59;;;;;;;1.67;0.50;;;;;;;;;;2011222;29;20054;-57
2024/01/02 02:03:00;;;;;;;4.65;1.08;;;;;;;;;;2010666;29;20064;-58
2024/01/02 02:04:01;;;;;;;6.05;1.30;;;;;;;;;;2018799;29;20533;-58
2024/01/02 02:05:02;;;;;;;2.85;0.52;;;;;;;;;;2018436;29;20052;-58
2024/01/02 02:06:03;;;;;;;2.40;0.70;;;;;;;;;;2026251;29;20404;-57
2024/01/02 02:07:04;;;;;;;4.40;0.82;;;;;;;;;;2026621;29;20052;-57
2024/01/02 02:08:05;;;;;;;2.00;0.85;;;;;;;;;;2026614;29;20056;-58
2024/01/02 02:09:05;;;;;;;2.50;0.60;;;;;;;;;;2010753;29;20049;-60
2024/01/02 02:10:09;;;;;;;2.70;0.90;;;;;;;;;;2003241;29;20074;-58
2024/01/02 02:11:10;;;;;;;1.55;0.88;;;;;;;;;;2011096;29;20056;-58
2024/01/02 02:12:11;;;;;;;4.35;0.70;;;;;;;;;;2010275;29;20056;-57
2024/01/02 02:13:12;;;;;;;1.58;0.55;;;;;;;;;;2010553;29;20045;-58
2024/01/02 02:14:13;;;;;;;4.90;0.75;;;;;;;;;;2018500;29;20041;-58
2024/01/02 02:15:14;;;;;;;2.25;0.68;;;;;;;;;;2018494;29;20033;-58
2024/01/02 02:16:14;;;;;;;3.70;0.63;;;;;;;;;;2026879;29;20039;-58
2024/01/02 02:17:19;;;;;;;2.35;0.47;;;;;;;;;;2026276;29;20053;-58
2024/01/02 02:18:20;;;;;;;4.00;0.68;;;;;;;;;;2018430;29;20055;-58
2024/01/02 02:19:20;;;;;;;2.42;0.50;;;;;;;;;;2018842;29;20044;-57
2024/01/02 02:20:21;;;;;;;1.20;0.60;;;;;;;;;;2018160;29;20053;-57
2024/01/02 02:21:22;;;;;;;4.32;0.60;;;;;;;;;;2010196;29;20046;-58
2024/01/02 02:22:23;;;;;;;3.10;0.60;;;;;;;;;;2010635;29;20049;-57
2024/01/02 02:23:24;;;;;;;2.53;0.65;;;;;;;;;;2009932;29;20042;-58
2024/01/02 02:24:24;;;;;;;1.35;0.55;;;;;;;;;;2018433;29;20041;-58
2024/01/02 02:25:26;;;;;;;2.40;0.50;;;;;;;;;;2018449;29;20033;-58
2024/01/02 02:26:27;;;;;;;2.90;0.70;;;;;;;;;;2026828;29;20041;-58
2024/01/02 02:27:28;;;;;;;3.05;0.60;;;;;;;;;;2026764;29;20032;-57
2024/01/02 02:28:29;;;;;;;1.88;0.80;;;;;;;;;;2026300;29;20512;-57
2024/01/02 02:29:29;;;;;;;0.85;0.38;;;;;;;;;;2025253;29;20079;-58
2024/01/02 02:30:30;;;;;;;0.98;0.40;;;;;;;;;;2026906;29;20040;-58
2024/01/02 02:31:31;;;;;;;2.05;0.75;;;;;;;;;;2026707;29;20418;-58
2024/01/02 02:32:31;;;;;;;3.45;0.80;;;;;;;;;;2026693;29;20157;-57
2024/01/02 02:33:32;;;;;;;3.28;0.68;;;;;;;;;;2025969;29;20048;-57
2024/01/02 02:34:33;;;;;;;2.13;0.63;;;;;;;;;;2026785;29;20118;-57
2024/01/02 02:35:34;;;;;;;1.33;0.45;;;;;;;;;;2026815;29;20035;-58
2024/01/02 02:36:34;;;;;;;0.80;0.40;;;;;;;;;;2018329;29;20417;-58
2024/01/02 02:37:35;;;;;;;3.47;0.63;;;;;;;;;;2017804;29;20052;-58
2024/01/02 02:38:36;;;;;;;1.70;0.60;;;;;;;;;;2026610;29;20112;-58
2024/01/02 02:39:37;;;;;;;2.90;0.52;;;;;;;;;;2026773;29;20041;-58
2024/01/02 02:40:38;;;;;;;3.22;0.80;;;;;;;;;;2026689;29;20120;-58
2024/01/02 02:41:38;;;;;;;3.13;0.70;;;;;;;;;;2025905;29;20052;-58
2024/01/02 02:42:40;;;;;;;2.58;0.60;;;;;;;;;;2026747;29;20236;-58
2024/01/02 02:43:41;;;;;;;2.17;0.70;;;;;;;;;;2018378;29;20060;-57
2024/01/02 02:44:43;;;;;;;3.45;0.80;;;;;;;;;;2017719;29;20045;-58
2024/01/02 02:45:43;;;;;;;1.15;0.50;;;;;;;;;;2026327;29;20057;-58
2024/01/02 02:46:44;;;;;;;2.28;0.45;;;;;;;;;;2018330;29;20041;-58
2024/01/02 02:47:45;;;;;;;2.22;0.60;;;;;;;;;;2017940;29;20049;-58
2024/01/02 02:48:45;;;;;;;4.32;0.60;;;;;;;;;;2017503;29;20053;-58
2024/01/02 02:49:46;;;;;;;2.35;0.50;;;;;;;;;;2018295;29;20041;-58
2024/01/02 02:50:47;;;;;;;2.92;0.55;;;;;;;;;;2026007;29;20393;-58
2024/01/02 02:51:48;;;;;;;5.38;0.70;;;;;;;;;;2026753;29;20040;-58
2024/01/02 02:52:48;;;;;;;7.03;0.93;;;;;;;;;;2025785;29;20048;-58
2024/01/02 02:53:49;;;;;;;3.38;0.95;;;;;;;;;;2026077;29;20056;-58
2024/01/02 02:54:50;;;;;;;2.55;0.70;;;;;;;;;;2026582;29;20033;-57
2024/01/02 02:55:50;;;;;;;3.17;0.80;;;;;;;;;;2025155;29;20067;-57
2024/01/02 02:56:51;;;;;;;2.88;0.60;;;;;;;;;;2017736;29;20426;-58
2024/01/02 02:57:52;;;;;;;1.85;0.45;;;;;;;;;;2018479;29;20041;-57
2024/01/02 02:58:53;;;;;;;1.75;0.70;;;;;;;;;;2026460;29;20035;-58
2024/01/02 02:59:53;;;;;;;2.95;0.77;;;;;;;;;;2025600;29;20048;-58
2024/01/02 03:00:54;;;;;;;2.40;0.70;;;;;;;;;;2026510;29;20044;-58
2024/01/02 03:01:55;;;;;;;2.05;0.22;;;;;;;;;;2018155;29;20041;-57
2024/01/02 03:02:56;;;;;;;2.33;0.70;;;;;;;;;;2018064;29;20048;-58
2024/01/02 03:03:57;;;;;;;3.40;0.40;;;;;;;;;;2025864;29;20052;-57
2024/01/02 03:04:58;;;;;;;3.85;0.73;;;;;;;;;;2026640;29;20040;-57
2024/01/02 03:05:59;;;;;;;0.95;0.40;;;;;;;;;;2026424;29;20037;-58
2024/01/02 03:07:00;;;;;;;2.20;0.68;;;;;;;;;;2025559;29;20040;-58
2024/01/02 03:08:00;;;;;;;2.72;0.80;;;;;;;;;;2026615;29;20052;-58
2024/01/02 03:09:01;;;;;;;3.40;0.80;;;;;;;;;;2025817;29;20052;-58
2024/01/02 03:10:02;;;;;;;0.30;0.30;;;;;;;;;;2025822;29;20545;-57
2024/01/02 03:11:03;;;;;;;1.20;0.68;;;;;;;;;;2026455;29;20446;-57
2024/01/02 03:12:04;;;;;;;3.20;0.63;;;;;;;;;;2025913;29;20049;-57
2024/01/02 03:13:04;;;;;;;3.60;0.80;;;;;;;;;;2026421;29;20037;-58
2024/01/02 03:14:05;;;;;;;0.10;0.10;;;;;;;;;;2026403;29;20040;-58
2024/01/02 03:15:06;;;;;;;2.58;0.88;;;;;;;;;;2026275;29;20047;-58
2024/01/02 03:16:07;;;;;;;2.03;0.75;;;;;;;;;;2026333;29;20484;-58
2024/01/02 03:17:08;;;;;;;2.45;0.65;;;;;;;;;;2026530;29;20036;-58
2024/01/02 03:18:09;;;;;;;3.22;0.60;;;;;;;;;;2026565;29;20390;-58
2024/01/02 03:19:10;;;;;;;1.58;0.40;;;;;;;;;;2026346;29;20028;-58
2024/01/02 03:20:11;;;;;;;2.55;0.55;;;;;;;;;;2025768;29;20053;-58
2024/01/02 03:21:11;;;;;;;2.88;0.68;;;;;;;;;;2025520;29;20052;-57
2024/01/02 03:22:12;;;;;;;0.85;0.35;;;;;;;;;;2026382;29;20044;-58
2024/01/02 03:23:13;;;;;;;1.63;0.47;;;;;;;;;;2018200;29;20032;-58
2024/01/02 03:24:14;;;;;;;1.65;0.70;;;;;;;;;;2018170;29;20033;-58
2024/01/02 03:25:14;;;;;;;1.75;0.50;;;;;;;;;;2025696;29;20405;-57
2024/01/02 03:26:15;;;;;;;1.63;0.60;;;;;;;;;;2026218;29;20040;-57
2024/01/02 03:27:16;;;;;;;3.10;0.85;;;;;;;;;;2025847;29;20424;-58
2024/01/02 03:28:17;;;;;;;3.50;0.60;;;;;;;;;;2026343;29;20036;-57
2024/01/02 03:29:17;;;;;;;3.65;0.50;;;;;;;;;;2026046;29;20127;-58
2024/01/02 03:30:18;;;;;;;4.63;1.35;;;;;;;;;;2025987;29;20049;-57
2024/01/02 03:31:19;;;;;;;0.82;0.50;;;;;;;;;;2025544;29;20045;-58
2024/01/02 03:32:19;;;;;;;3.42;0.75;;;;;;;;;;2025807;29;20045;-57
2024/01/02 03:33:20;;;;;;;2.67;0.70;;;;;;;;;;2026295;29;20039;-59
2024/01/02 03:34:21;;;;;;;1.17;0.43;;;;;;;;;;2026434;29;20417;-58
2024/01/02 03:35:22;;;;;;;2.35;0.40;;;;;;;;;;2025621;29;20496;-57
2024/01/02 03:36:23;;;;;;;1.88;0.40;;;;;;;;;;2026191;29;20107;-58
2024/01/02 03:37:24;;;;;;;2.88;0.73;;;;;;;;;;2026298;29;20028;-58
2024/01/02 03:38:24;;;;;;;1.33;0.32;;;;;;;;;;2026429;29;20473;-57
2024/01/02 03:39:25;;;;;;;2.40;0.80;;;;;;;;;;2025665;29;20056;-57
2024/01/02 03:40:26;;;;;;;2.45;0.98;;;;;;;;;;2025887;29;20044;-58
2024/01/02 03:41:27;;;;;;;0.88;0.40;;;;;;;;;;2026189;29;20036;-58
2024/01/02 03:42:27;;;;;;;4.47;0.85;;;;;;;;;;2025564;29;20123;-58
2024/01/02 03:43:28;;;;;;;0.57;0.30;;;;;;;;;;2026336;29;20048;-58
2024/01/02 03:44:29;;;;;;;2.80;0.82;;;;;;;;;;2025636;29;20040;-58
2024/01/02 03:45:29;;;;;;;3.80;1.10;;;;;;;;;;2025599;29;20397;-58
2024/01/02 03:46:30;;;;;;;4.65;0.45;;;;;;;;;;2026111;29;20044;-58
2024/01/02 03:47:31;;;;;;;1.75;0.50;;;;;;;;;;2025572;29;20076;-58
2024/01/02 03:48:32;;;;;;;1.33;0.40;;;;;;;;;;2025520;29;20045;-58
2024/01/02 03:49:32;;;;;;;2.78;0.55;;;;;;;;;;2025875;29;20028;-58
2024/01/02 03:50:33;;;;;;;3.25;0.77;;;;;;;;;;2025735;29;20032;-61
2024/01/02 03:51:34;;;;;;;1.30;0.35;;;;;;;;;;2026014;29;20040;-58
2024/01/02 03:52:34;;;;;;;2.35;0.43;;;;;;;;;;2025317;29;20044;-58
2024/01/02 03:53:35;;;;;;;2.40;0.70;;;;;;;;;;2026309;29;20059;-58
2024/01/02 03:54:36;;;;;;;0.50;0.35;;;;;;;;;;2025809;29;20055;-58
2024/01/02 03:55:37;;;;;;;1.98;0.60;;;;;;;;;;2025613;29;20044;-58
2024/01/02 03:56:37;;;;;;;2.20;0.68;;;;;;;;;;2025314;29;20056;-58
2024/01/02 03:57:38;;;;;;;3.22;0.50;;;;;;;;;;2025808;29;20040;-58
2024/01/02 03:58:39;;;;;;;1.35;0.65;;;;;;;;;;2026032;29;20036;-58
2024/01/02 03:59:40;;;;;;;1.90;0.50;;;;;;;;;;2025635;29;20036;-58
2024/01/02 04:00:40;;;;;;;0.85;0.40;;;;;;;;;;2025743;29;20039;-57
2024/01/02 04:01:42;;;;;;;1.80;0.50;;;;;;;;;;2026313;29;20044;-58
2024/01/02 04:02:43;;;;;;;2.22;0.60;;;;;;;;;;2025190;29;20055;-58
2024/01/02 04:03:44;;;;;;;1.08;0.20;;;;;;;;;;2026021;29;20043;-58
2024/01/02 04:04:45;;;;;;;1.13;0.40;;;;;;;;;;2026297;29;20060;-58
2024/01/02 04:05:45;;;;;;;1.67;0.82;;;;;;;;;;2025316;29;20055;-58
2024/01/02 04:06:46;;;;;;;0.98;0.50;;;;;;;;;;2026052;29;20124;-58
2024/01/02 04:07:47;;;;;;;0.57;0.30;;;;;;;;;;2025876;29;20040;-58
2024/01/02 04:08:47;;;;;;;0.88;0.40;;;;;;;;;;2026082;29;20035;-58
2024/01/02 04:09:48;;;;;;;1.15;0.60;;;;;;;;;;2025190;29;20081;-58
2024/01/02 04:10:49;;;;;;;1.15;0.50;;;;;;;;;;2026304;29;20068;-58
2024/01/02 04:11:50;;;;;;;1.52;0.45;;;;;;;;;;2026178;29;20040;-58
2024/01/02 04:12:50;;;;;;;2.25;0.52;;;;;;;;;;2026151;29;20116;-59
2024/01/02 04:13:51;;;;;;;1.65;0.43;;;;;;;;;;2025464;29;20083;-59
2024/01/02 04:14:52;;;;;;;1.45;0.40;;;;;;;;;;2026216;29;20517;-58
2024/01/02 04:15:52;;;;;;;1.42;0.38;;;;;;;;;;2026001;29;20060;-58
2024/01/02 04:16:53;;;;;;;0.30;0.15;;;;;;;;;;2026042;29;20032;-59
2024/01/02 04:17:54;;;;;;;3.97;0.77;;;;;;;;;;2025366;29;20049;-59
2024/01/02 04:18:55;;;;;;;2.28;0.57;;;;;;;;;;2025992;29;20036;-58
2024/01/02 04:19:55;;;;;;;1.27;0.50;;;;;;;;;;2025974;29;20482;-59
2024/01/02 04:20:56;;;;;;;1.52;0.60;;;;;;;;;;2026004;29;20044;-59
2024/01/02 04:21:57;;;;;;;0.82;0.35;;;;;;;;;;2025808;29;20037;-58
2024/01/02 04:22:58;;;;;;;1.30;0.40;;;;;;;;;;2025466;29;20050;-59
2024/01/02 04:23:59;;;;;;;0.25;0.10;;;;;;;;;;2026012;29;20115;-59
2024/01/02 04:25:00;;;;;;;0.93;0.22;;;;;;;;;;2025119;29;20064;-59
2024/01/02 04:26:00;;;;;;;2.28;0.47;;;;;;;;;;2025939;29;20052;-59
2024/01/02 04:27:01;;;;;;;1.23;0.50;;;;;;;;;;2025970;29;20045;-58
2024/01/02 04:28:02;;;;;;;2.25;0.40;;;;;;;;;;2025147;29;20059;-58
2024/01/02 04:29:02;;;;;;;1.08;0.40;;;;;;;;;;2025998;29;20131;-58
2024/01/02 04:30:04;;;;;;;0.70;0.38;;;;;;;;;;2025824;29;20048;-59
2024/01/02 04:31:06;;;;;;;1.90;0.50;;;;;;;;;;2025965;29;20122;-59
2024/01/02 04:32:07;;;;;;;4.82;0.70;;;;;;;;;;2026027;29;20036;-59
2024/01/02 04:33:08;;;;;;;0.82;0.50;;;;;;;;;;2025847;29;20050;-59
2024/01/02 04:34:08;;;;;;;1.15;0.60;;;;;;;;;;2025877;29;20045;-59
2024/01/02 04:35:09;;;;;;;1.75;0.77;;;;;;;;;;2025908;29;20397;-58
2024/01/02 04:36:10;;;;;;;2.17;0.40;;;;;;;;;;2026050;29;20041;-58
2024/01/02 04:37:11;;;;;;;2.33;0.68;;;;;;;;;;2025690;29;20045;-59
2024/01/02 04:38:12;;;;;;;0.68;0.30;;;;;;;;;;2025980;29;20111;-59
2024/01/02 04:39:12;;;;;;;1.50;0.43;;;;;;;;;;2026295;29;20107;-59
2024/01/02 04:40:13;;;;;;;0.95;0.50;;;;;;;;;;2025413;29;20057;-58
2024/01/02 04:41:14;;;;;;;1.10;0.32;;;;;;;;;;2025919;29;20037;-59
2024/01/02 04:42:15;;;;;;;1.60;0.40;;;;;;;;;;2025884;29;20040;-59
2024/01/02 04:43:16;;;;;;;1.23;0.40;;;;;;;;;;2025955;29;20040;-58
2024/01/02 04:44:17;;;;;;;0.50;0.20;;;;;;;;;;2025926;29;20037;-59
2024/01/02 04:45:17;;;;;;;0.73;0.40;;;;;;;;;;2026293;29;20044;-59
2024/01/02 04:46:18;;;;;;;1.60;0.50;;;;;;;;;;2024790;29;20072;-58
2024/01/02 04:47:19;;;;;;;1.73;0.30;;;;;;;;;;2025897;29;20075;-59
2024/01/02 04:48:19;;;;;;;3.65;0.45;;;;;;;;;;2025089;29;20052;-59
2024/01/02 04:49:20;;;;;;;1.65;0.52;;;;;;;;;;2025891;29;20071;-58
2024/01/02 04:50:21;;;;;;;1.15;0.43;;;;;;;;;;2025573;29;20047;-58
2024/01/02 04:51:22;;;;;;;1.73;0.50;;;;;;;;;;2025918;29;20398;-59
2024/01/02 04:52:22;;;;;;;1.85;0.15;;;;;;;;;;2025364;29;20052;-58
2024/01/02 04:53:23;;;;;;;0.85;0.50;;;;;;;;;;2025947;29;20060;-59
2024/01/02 04:54:24;;;;;;;2.67;0.47;;;;;;;;;;2025064;29;20036;-58
2024/01/02 04:55:24;;;;;;;1.90;0.28;;;;;;;;;;2025851;29;20393;-58
2024/01/02 04:56:25;;;;;;;1.75;0.28;;;;;;;;;;2025475;29;20053;-58
2024/01/02 04:57:26;;;;;;;1.10;0.30;;;;;;;;;;2026126;29;20025;-58
2024/01/02 04:58:27;;;;;;;0.93;0.30;;;;;;;;;;2025895;29;20036;-58
2024/01/02 04:59:28;;;;;;;1.23;0.30;;;;;;;;;;2017535;29;20422;-58
2024/01/02 05:00:29;;;;;;;0.60;0.30;;;;;;;;;;2017569;29;20036;-58
2024/01/02 05:01:29;;;;;;;1.58;0.73;;;;;;;;;;2025094;29;20052;-59
2024/01/02 05:02:30;;;;;;;1.42;0.70;;;;;;;;;;2025407;29;20071;-58
2024/01/02 05:03:31;;;;;;;1.25;0.57;;;;;;;;;;2026219;29;20055;-58
2024/01/02 05:04:33;;;;;;;2.20;0.52;;;;;;;;;;2025893;29;20036;-58
2024/01/02 05:05:34;;;;;;;0.30;0.20;;;;;;;;;;2025830;29;20040;-58
2024/01/02 05:06:35;;;;;;;2.28;0.28;;;;;;;;;;2024938;29;20401;-58
2024/01/02 05:07:35;;;;;;;1.33;0.35;;;;;;;;;;2025361;29;20048;-58
2024/01/02 05:08:36;;;;;;;3.30;0.30;;;;;;;;;;2025881;29;20068;-58
2024/01/02 05:09:37;;;;;;;2.42;0.50;;;;;;;;;;2025840;29;20032;-57
2024/01/02 05:10:38;;;;;;;0.57;0.20;;;;;;;;;;2025712;29;20037;-57
2024/01/02 05:11:38;;;;;;;0.90;0.10;;;;;;;;;;2025008;29;20087;-57
2024/01/02 05:12:39;;;;;;;0.90;0.28;;;;;;;;;;2026125;29;20382;-57
2024/01/02 05:13:40;;;;;;;0.45;0.20;;;;;;;;;;2025819;29;20045;-58
2024/01/02 05:14:40;;;;;;;1.98;0.40;;;;;;;;;;2025029;29;20037;-58
2024/01/02 05:15:41;;;;;;;0.50;0.22;;;;;;;;;;2025813;29;20039;-58
2024/01/02 05:16:42;;;;;;;1.90;0.45;;;;;;;;;;2025803;29;20040;-58
2024/01/02 05:17:43;;;;;;;1.05;0.35;;;;;;;;;;2026012;29;20028;-58
2024/01/02 05:18:43;;;;;;;0.85;0.20;;;;;;;;;;2025319;29;20512;-58
2024/01/02 05:19:44;;;;;;;0.63;0.50;;;;;;;;;;2025869;29;20044;-58
2024/01/02 05:20:47;;;;;;;3.15;0.30;;;;;;;;;;2026939;29;20386;-58
2024/01/02 05:21:51;;;;;;;0.98;0.30;;;;;;;;;;2027401;29;20036;-58
2024/01/02 05:22:51;;;;;;;1.40;0.40;;;;;;;;;;2027199;29;20048;-58
2024/01/02 05:23:52;;;;;;;1.98;0.45;;;;;;;;;;2027339;29;20040;-58
2024/01/02 05:24:53;;;;;;;2.92;0.35;;;;;;;;;;2026543;29;20403;-59
2024/01/02 05:25:54;;;;;;;0.17;0.17;;;;;;;;;;2026595;29;20049;-59
2024/01/02 05:26:54;;;;;;;0.60;0.30;;;;;;;;;;2026586;29;20492;-60
2024/01/02 05:27:55;;;;;;;0.60;0.40;;;;;;;;;;2027304;29;20041;-58
2024/01/02 05:28:56;;;;;;;1.05;0.40;;;;;;;;;;2026544;29;20060;-59
2024/01/02 05:29:57;;;;;;;0.35;0.20;;;;;;;;;;2027134;29;20052;-60
2024/01/02 05:30:57;;;;;;;0.68;0.28;;;;;;;;;;2026738;29;20409;-60
2024/01/02 05:31:58;;;;;;;1.80;0.40;;;;;;;;;;2027129;29;20489;-60
2024/01/02 05:32:59;;;;;;;1.25;0.40;;;;;;;;;;2027504;29;20080;-61
2024/01/02 05:33:59;;;;;;;1.02;0.30;;;;;;;;;;2028262;29;20037;-62
2024/01/02 05:35:00;;;;;;;1.42;0.30;;;;;;;;;;2028365;29;20481;-60
2024/01/02 05:36:01;;;;;;;1.67;0.20;;;;;;;;;;2028356;29;20051;-60
2024/01/02 05:37:02;;;;;;;0.63;0.38;;;;;;;;;;2028630;29;20119;-63
2024/01/02 05:38:03;;;;;;;0.90;0.25;;;;;;;;;;2028425;29;20067;-62
2024/01/02 05:39:03;;;;;;;0.65;0.22;;;;;;;;;;2027250;29;20032;-61
2024/01/02 05:40:05;;;;;;;2.50;0.40;;;;;;;;;;2026200;29;20397;-60
2024/01/02 05:41:06;;;;;;;3.00;0.30;;;;;;;;;;2026787;29;20045;-60
2024/01/02 05:42:07;;;;;;;0.77;0.35;;;;;;;;;;2026143;29;20045;-60
2024/01/02 05:43:08;;;;;;;1.20;0.30;;;;;;;;;;2026711;29;20084;-63
2024/01/02 05:44:09;;;;;;;1.63;0.50;;;;;;;;;;2026993;29;20037;-60
2024/01/02 05:45:10;;;;;;;0.90;0.30;;;;;;;;;;2018794;29;20037;-61
2024/01/02 05:46:10;;;;;;;1.92;0.47;;;;;;;;;;2018773;29;20063;-61
2024/01/02 05:47:11;;;;;;;1.55;0.43;;;;;;;;;;2027039;29;20536;-61
2024/01/02 05:48:12;;;;;;;2.92;0.30;;;;;;;;;;2027208;29;20409;-60
2024/01/02 05:49:13;;;;;;;1.17;0.43;;;;;;;;;;2027022;29;20074;-61
2024/01/02 05:50:13;;;;;;;0.60;0.32;;;;;;;;;;2026804;29;20044;-61
2024/01/02 05:51:17;;;;;;;0.55;0.30;;;;;;;;;;2027046;29;20160;-61
2024/01/02 05:52:17;;;;;;;2.15;0.50;;;;;;;;;;2026993;29;20037;-61
2024/01/02 05:53:18;;;;;;;1.20;0.28;;;;;;;;;;2027004;29;20482;-61
2024/01/02 05:54:19;;;;;;;1.58;0.43;;;;;;;;;;2026996;29;20473;-60
2024/01/02 05:55:19;;;;;;;1.40;0.20;;;;;;;;;;2027267;29;20029;-60
2024/01/02 05:56:20;;;;;;;0.95;0.20;;;;;;;;;;2026957;29;20056;-60
2024/01/02 05:57:21;;;;;;;1.15;0.38;;;;;;;;;;2027111;29;20023;-61
2024/01/02 05:58:22;;;;;;;1.05;0.32;;;;;;;;;;2026986;29;20037;-61
2024/01/02 05:59:22;;;;;;;2.25;0.40;;;;;;;;;;2027095;29;20043;-61
2024/01/02 06:00:23;;;;;;;1.52;0.32;;;;;;;;;;2026353;29;20439;-61
2024/01/02 06:01:24;;;;;;;2.95;1.02;;;;;;;;;;2026170;29;20040;-61
2024/01/02 06:02:24;;;;;;;3.03;0.47;;;;;;;;;;2026625;29;20040;-61
2024/01/02 06:03:25;;;;;;;0.90;0.38;;;;;;;;;;2026096;29;20049;-61
2024/01/02 06:04:26;;;;;;;2.35;0.40;;;;;;;;;;2026538;29;20504;-61